sensor_id;sensor_type;location;lat;lon;timestamp;temperature;humidity
17385;DHT22;8810;48.680;8.894;2023-03-15T00:00:22;2.00;99.90
17385;DHT22;8810;48.680;8.894;2023-03-15T00:02:49;1.90;99.90
17385;DHT22;8810;48.680;8.894;2023-03-15T00:05:16;1.90;99.90
17385;DHT22;8810;48.680;8.894;2023-03-15T00:07:42;1.80;99.90
17385;DHT22;8810;48.680;8.894;2023-03-15T00:10:10;1.80;99.90
17385;DHT22;8810;48.680;8.894;2023-03-15T00:12:37;1.80;99.90
17385;DHT22;8810;48.680;8.894;2023-03-15T00:15:06;1.80;99.90
17385;DHT22;8810;48.680;8.894;2023-03-15T00:17:33;1.80;99.90
17385;DHT22;8810;48.680;8.894;2023-03-15T00:20:00;1.80;99.90
17385;DHT22;8810;48.680;8.894;2023-03-15T00:22:27;1.80;99.90
17385;DHT22;8810;48.680;8.894;2023-03-15T00:24:53;1.80;99.90
17385;DHT22;8810;48.680;8.894;2023-03-15T00:27:20;1.90;99.90
17385;DHT22;8810;48.680;8.894;2023-03-15T00:29:47;1.90;99.90
17385;DHT22;8810;48.680;8.894;2023-03-15T00:32:15;1.90;99.90
17385;DHT22;8810;48.680;8.894;2023-03-15T00:34:42;1.90;99.90
17385;DHT22;8810;48.680;8.894;2023-03-15T00:37:13;2.00;99.90
17385;DHT22;8810;48.680;8.894;2023-03-15T00:39:41;1.90;99.90
17385;DHT22;8810;48.680;8.894;2023-03-15T00:42:10;1.90;99.90
17385;DHT22;8810;48.680;8.894;2023-03-15T00:44:40;1.90;99.90
17385;DHT22;8810;48.680;8.894;2023-03-15T00:47:07;1.90;99.90
17385;DHT22;8810;48.680;8.894;2023-03-15T00:49:35;1.90;99.90
17385;DHT22;8810;48.680;8.894;2023-03-15T00:52:03;1.90;99.90
17385;DHT22;8810;48.680;8.894;2023-03-15T00:54:30;1.90;99.90
17385;DHT22;8810;48.680;8.894;2023-03-15T00:56:57;1.90;99.90
17385;DHT22;8810;48.680;8.894;2023-03-15T00:59:24;1.90;99.90
17385;DHT22;8810;48.680;8.894;2023-03-15T01:01:53;1.90;99.90
17385;DHT22;8810;48.680;8.894;2023-03-15T01:04:20;1.90;99.90
17385;DHT22;8810;48.680;8.894;2023-03-15T01:06:48;1.90;99.90
17385;DHT22;8810;48.680;8.894;2023-03-15T01:09:15;1.90;99.90
17385;DHT22;8810;48.680;8.894;2023-03-15T01:11:42;1.90;99.90
17385;DHT22;8810;48.680;8.894;2023-03-15T01:14:09;1.80;99.90
17385;DHT22;8810;48.680;8.894;2023-03-15T01:16:36;1.70;99.90
17385;DHT22;8810;48.680;8.894;2023-03-15T01:19:03;1.70;99.90
17385;DHT22;8810;48.680;8.894;2023-03-15T01:21:30;1.70;99.90
17385;DHT22;8810;48.680;8.894;2023-03-15T01:23:58;1.60;99.90
17385;DHT22;8810;48.680;8.894;2023-03-15T01:26:25;1.60;99.90
17385;DHT22;8810;48.680;8.894;2023-03-15T01:28:52;1.60;99.90
17385;DHT22;8810;48.680;8.894;2023-03-15T01:31:21;1.50;99.90
17385;DHT22;8810;48.680;8.894;2023-03-15T01:33:48;1.50;99.90
17385;DHT22;8810;48.680;8.894;2023-03-15T01:36:15;1.50;99.90
17385;DHT22;8810;48.680;8.894;2023-03-15T01:38:43;1.40;99.90
17385;DHT22;8810;48.680;8.894;2023-03-15T01:41:12;1.40;99.90
17385;DHT22;8810;48.680;8.894;2023-03-15T01:43:39;1.40;99.90
17385;DHT22;8810;48.680;8.894;2023-03-15T01:46:22;1.30;99.90
17385;DHT22;8810;48.680;8.894;2023-03-15T01:48:54;1.30;99.90
17385;DHT22;8810;48.680;8.894;2023-03-15T01:51:25;1.30;99.90
17385;DHT22;8810;48.680;8.894;2023-03-15T01:53:56;1.20;99.90
17385;DHT22;8810;48.680;8.894;2023-03-15T01:56:26;1.20;99.90
17385;DHT22;8810;48.680;8.894;2023-03-15T01:58:55;1.10;99.90
17385;DHT22;8810;48.680;8.894;2023-03-15T02:01:24;1.10;99.90
17385;DHT22;8810;48.680;8.894;2023-03-15T02:03:54;1.10;99.90
17385;DHT22;8810;48.680;8.894;2023-03-15T02:06:23;1.10;99.90
17385;DHT22;8810;48.680;8.894;2023-03-15T02:08:54;1.00;99.90
17385;DHT22;8810;48.680;8.894;2023-03-15T02:11:26;1.00;99.90
17385;DHT22;8810;48.680;8.894;2023-03-15T02:13:54;0.90;99.90
17385;DHT22;8810;48.680;8.894;2023-03-15T02:16:22;0.90;99.90
17385;DHT22;8810;48.680;8.894;2023-03-15T02:18:50;0.90;99.90
17385;DHT22;8810;48.680;8.894;2023-03-15T02:21:28;0.90;99.90
17385;DHT22;8810;48.680;8.894;2023-03-15T02:24:04;0.90;99.90
17385;DHT22;8810;48.680;8.894;2023-03-15T02:26:38;0.80;99.90
17385;DHT22;8810;48.680;8.894;2023-03-15T02:29:09;0.80;99.90
17385;DHT22;8810;48.680;8.894;2023-03-15T02:31:36;0.80;99.90
17385;DHT22;8810;48.680;8.894;2023-03-15T02:34:04;0.80;99.90
17385;DHT22;8810;48.680;8.894;2023-03-15T02:36:33;0.80;99.90
17385;DHT22;8810;48.680;8.894;2023-03-15T02:39:00;0.70;99.90
17385;DHT22;8810;48.680;8.894;2023-03-15T02:41:30;0.70;99.90
17385;DHT22;8810;48.680;8.894;2023-03-15T02:44:01;0.60;99.90
17385;DHT22;8810;48.680;8.894;2023-03-15T02:46:30;0.60;99.90
17385;DHT22;8810;48.680;8.894;2023-03-15T02:48:57;0.60;99.90
17385;DHT22;8810;48.680;8.894;2023-03-15T02:51:27;0.60;99.90
17385;DHT22;8810;48.680;8.894;2023-03-15T02:53:55;0.50;99.90
17385;DHT22;8810;48.680;8.894;2023-03-15T02:56:21;0.50;99.90
17385;DHT22;8810;48.680;8.894;2023-03-15T02:58:49;0.50;99.90
17385;DHT22;8810;48.680;8.894;2023-03-15T03:01:16;0.40;99.90
17385;DHT22;8810;48.680;8.894;2023-03-15T03:03:46;0.40;99.90
17385;DHT22;8810;48.680;8.894;2023-03-15T03:06:14;0.40;99.90
17385;DHT22;8810;48.680;8.894;2023-03-15T03:08:41;0.30;99.90
17385;DHT22;8810;48.680;8.894;2023-03-15T03:11:13;0.30;99.90
17385;DHT22;8810;48.680;8.894;2023-03-15T03:13:40;0.20;99.90
17385;DHT22;8810;48.680;8.894;2023-03-15T03:16:08;0.20;99.90
17385;DHT22;8810;48.680;8.894;2023-03-15T03:18:35;0.20;99.90
17385;DHT22;8810;48.680;8.894;2023-03-15T03:21:05;0.10;99.90
17385;DHT22;8810;48.680;8.894;2023-03-15T03:23:33;0.10;99.90
17385;DHT22;8810;48.680;8.894;2023-03-15T03:26:01;0.00;99.90
17385;DHT22;8810;48.680;8.894;2023-03-15T03:28:30;0.00;99.90
17385;DHT22;8810;48.680;8.894;2023-03-15T03:30:57;0.00;99.90
17385;DHT22;8810;48.680;8.894;2023-03-15T03:33:25;-0.10;99.90
17385;DHT22;8810;48.680;8.894;2023-03-15T03:35:52;-0.10;99.90
17385;DHT22;8810;48.680;8.894;2023-03-15T03:38:21;-0.10;99.90
17385;DHT22;8810;48.680;8.894;2023-03-15T03:40:47;-0.20;99.90
17385;DHT22;8810;48.680;8.894;2023-03-15T03:43:14;-0.20;99.90
17385;DHT22;8810;48.680;8.894;2023-03-15T03:45:41;-0.20;99.90
17385;DHT22;8810;48.680;8.894;2023-03-15T03:48:08;-0.20;99.90
17385;DHT22;8810;48.680;8.894;2023-03-15T03:50:34;-0.20;99.90
17385;DHT22;8810;48.680;8.894;2023-03-15T03:53:01;-0.20;99.90
17385;DHT22;8810;48.680;8.894;2023-03-15T03:55:30;-0.20;99.90
17385;DHT22;8810;48.680;8.894;2023-03-15T03:57:58;-0.20;99.90
17385;DHT22;8810;48.680;8.894;2023-03-15T04:00:25;-0.20;99.90
17385;DHT22;8810;48.680;8.894;2023-03-15T04:02:52;-0.20;99.90
17385;DHT22;8810;48.680;8.894;2023-03-15T04:05:19;-0.20;99.90
17385;DHT22;8810;48.680;8.894;2023-03-15T04:07:46;-0.20;99.90
17385;DHT22;8810;48.680;8.894;2023-03-15T04:10:13;-0.20;99.90
17385;DHT22;8810;48.680;8.894;2023-03-15T04:12:42;-0.20;99.90
17385;DHT22;8810;48.680;8.894;2023-03-15T04:15:09;-0.20;99.90
17385;DHT22;8810;48.680;8.894;2023-03-15T04:17:36;-0.10;99.90
17385;DHT22;8810;48.680;8.894;2023-03-15T04:20:04;-0.10;99.90
17385;DHT22;8810;48.680;8.894;2023-03-15T04:22:35;-0.10;99.90
17385;DHT22;8810;48.680;8.894;2023-03-15T04:25:02;-0.10;99.90
17385;DHT22;8810;48.680;8.894;2023-03-15T04:27:29;-0.10;99.90
17385;DHT22;8810;48.680;8.894;2023-03-15T04:29:57;-0.10;99.90
17385;DHT22;8810;48.680;8.894;2023-03-15T04:32:24;-0.10;99.90
17385;DHT22;8810;48.680;8.894;2023-03-15T04:34:51;-0.20;99.90
17385;DHT22;8810;48.680;8.894;2023-03-15T04:37:20;-0.10;99.90
17385;DHT22;8810;48.680;8.894;2023-03-15T04:39:47;-0.20;99.90
17385;DHT22;8810;48.680;8.894;2023-03-15T04:42:14;-0.30;99.90
17385;DHT22;8810;48.680;8.894;2023-03-15T04:44:40;-0.30;99.90
17385;DHT22;8810;48.680;8.894;2023-03-15T04:47:09;-0.30;99.90
17385;DHT22;8810;48.680;8.894;2023-03-15T04:49:36;-0.40;99.90
17385;DHT22;8810;48.680;8.894;2023-03-15T04:52:03;-0.50;99.90
17385;DHT22;8810;48.680;8.894;2023-03-15T04:54:30;-0.50;99.90
17385;DHT22;8810;48.680;8.894;2023-03-15T04:56:57;-0.60;99.90
17385;DHT22;8810;48.680;8.894;2023-03-15T04:59:24;-0.60;99.90
17385;DHT22;8810;48.680;8.894;2023-03-15T05:01:51;-0.60;99.90
17385;DHT22;8810;48.680;8.894;2023-03-15T05:04:19;-0.70;99.90
17385;DHT22;8810;48.680;8.894;2023-03-15T05:06:46;-0.70;99.90
17385;DHT22;8810;48.680;8.894;2023-03-15T05:09:12;-0.70;99.90
17385;DHT22;8810;48.680;8.894;2023-03-15T05:11:43;-0.60;99.90
17385;DHT22;8810;48.680;8.894;2023-03-15T05:14:10;-0.70;99.90
17385;DHT22;8810;48.680;8.894;2023-03-15T05:16:37;-0.70;99.90
17385;DHT22;8810;48.680;8.894;2023-03-15T05:19:04;-0.70;99.90
17385;DHT22;8810;48.680;8.894;2023-03-15T05:21:32;-0.70;99.90
17385;DHT22;8810;48.680;8.894;2023-03-15T05:23:59;-0.80;99.90
17385;DHT22;8810;48.680;8.894;2023-03-15T05:26:26;-0.80;99.90
17385;DHT22;8810;48.680;8.894;2023-03-15T05:28:53;-0.80;99.90
17385;DHT22;8810;48.680;8.894;2023-03-15T05:31:19;-0.90;99.90
17385;DHT22;8810;48.680;8.894;2023-03-15T05:33:46;-0.90;99.90
17385;DHT22;8810;48.680;8.894;2023-03-15T05:36:13;-0.90;99.90
17385;DHT22;8810;48.680;8.894;2023-03-15T05:38:41;-1.00;99.90
17385;DHT22;8810;48.680;8.894;2023-03-15T05:41:08;-0.90;99.90
17385;DHT22;8810;48.680;8.894;2023-03-15T05:43:35;-0.90;99.90
17385;DHT22;8810;48.680;8.894;2023-03-15T05:46:02;-0.80;99.90
17385;DHT22;8810;48.680;8.894;2023-03-15T05:48:29;-0.80;99.90
17385;DHT22;8810;48.680;8.894;2023-03-15T05:50:56;-0.70;99.90
17385;DHT22;8810;48.680;8.894;2023-03-15T05:53:23;-0.60;99.90
17385;DHT22;8810;48.680;8.894;2023-03-15T05:55:52;-0.60;99.90
17385;DHT22;8810;48.680;8.894;2023-03-15T05:58:18;-0.60;99.90
17385;DHT22;8810;48.680;8.894;2023-03-15T06:00:45;-0.60;99.90
17385;DHT22;8810;48.680;8.894;2023-03-15T06:03:13;-0.60;99.90
17385;DHT22;8810;48.680;8.894;2023-03-15T06:05:40;-0.50;99.90
17385;DHT22;8810;48.680;8.894;2023-03-15T06:08:07;-0.50;99.90
17385;DHT22;8810;48.680;8.894;2023-03-15T06:10:34;-0.50;99.90
17385;DHT22;8810;48.680;8.894;2023-03-15T06:13:03;-0.50;99.90
17385;DHT22;8810;48.680;8.894;2023-03-15T06:15:30;-0.50;99.90
17385;DHT22;8810;48.680;8.894;2023-03-15T06:17:57;-0.50;99.90
17385;DHT22;8810;48.680;8.894;2023-03-15T06:20:24;-0.40;99.90
17385;DHT22;8810;48.680;8.894;2023-03-15T06:22:51;-0.30;99.90
17385;DHT22;8810;48.680;8.894;2023-03-15T06:25:18;-0.10;99.90
17385;DHT22;8810;48.680;8.894;2023-03-15T06:27:44;0.00;99.90
17385;DHT22;8810;48.680;8.894;2023-03-15T06:30:13;0.20;99.90
17385;DHT22;8810;48.680;8.894;2023-03-15T06:32:40;0.40;99.90
17385;DHT22;8810;48.680;8.894;2023-03-15T06:35:07;0.60;99.90
17385;DHT22;8810;48.680;8.894;2023-03-15T06:37:34;0.70;99.90
17385;DHT22;8810;48.680;8.894;2023-03-15T06:40:03;0.90;99.90
17385;DHT22;8810;48.680;8.894;2023-03-15T06:42:31;1.10;99.90
17385;DHT22;8810;48.680;8.894;2023-03-15T06:44:59;1.30;99.90
17385;DHT22;8810;48.680;8.894;2023-03-15T06:47:28;1.50;99.90
17385;DHT22;8810;48.680;8.894;2023-03-15T06:49:54;1.70;99.90
17385;DHT22;8810;48.680;8.894;2023-03-15T06:52:21;2.00;99.90
17385;DHT22;8810;48.680;8.894;2023-03-15T06:54:48;2.20;99.90
17385;DHT22;8810;48.680;8.894;2023-03-15T06:57:15;2.40;99.90
17385;DHT22;8810;48.680;8.894;2023-03-15T06:59:42;2.60;99.90
17385;DHT22;8810;48.680;8.894;2023-03-15T07:02:13;2.70;99.90
17385;DHT22;8810;48.680;8.894;2023-03-15T07:04:42;2.90;99.90
17385;DHT22;8810;48.680;8.894;2023-03-15T07:07:09;3.10;99.90
17385;DHT22;8810;48.680;8.894;2023-03-15T07:09:37;3.30;99.90
17385;DHT22;8810;48.680;8.894;2023-03-15T07:12:04;3.30;99.90
17385;DHT22;8810;48.680;8.894;2023-03-15T07:14:34;3.50;99.90
17385;DHT22;8810;48.680;8.894;2023-03-15T07:17:01;3.70;99.90
17385;DHT22;8810;48.680;8.894;2023-03-15T07:19:27;3.90;99.90
17385;DHT22;8810;48.680;8.894;2023-03-15T07:21:56;3.90;99.90
17385;DHT22;8810;48.680;8.894;2023-03-15T07:24:22;4.00;99.90
17385;DHT22;8810;48.680;8.894;2023-03-15T07:26:49;4.00;99.90
17385;DHT22;8810;48.680;8.894;2023-03-15T07:29:24;4.20;99.90
17385;DHT22;8810;48.680;8.894;2023-03-15T07:31:51;4.20;99.90
17385;DHT22;8810;48.680;8.894;2023-03-15T07:34:20;4.30;99.90
17385;DHT22;8810;48.680;8.894;2023-03-15T07:36:47;4.40;99.90
17385;DHT22;8810;48.680;8.894;2023-03-15T07:39:15;4.60;99.90
17385;DHT22;8810;48.680;8.894;2023-03-15T07:41:42;4.70;99.90
17385;DHT22;8810;48.680;8.894;2023-03-15T07:44:09;4.80;99.90
17385;DHT22;8810;48.680;8.894;2023-03-15T07:46:36;4.90;99.90
17385;DHT22;8810;48.680;8.894;2023-03-15T07:49:03;5.00;99.90
17385;DHT22;8810;48.680;8.894;2023-03-15T07:51:30;5.00;99.90
17385;DHT22;8810;48.680;8.894;2023-03-15T07:53:57;5.00;99.90
17385;DHT22;8810;48.680;8.894;2023-03-15T07:56:25;5.00;99.90
17385;DHT22;8810;48.680;8.894;2023-03-15T07:58:52;5.10;99.90
17385;DHT22;8810;48.680;8.894;2023-03-15T08:01:19;4.80;99.90
17385;DHT22;8810;48.680;8.894;2023-03-15T08:03:46;4.70;99.90
17385;DHT22;8810;48.680;8.894;2023-03-15T08:06:13;4.80;99.90
17385;DHT22;8810;48.680;8.894;2023-03-15T08:08:40;4.90;99.90
17385;DHT22;8810;48.680;8.894;2023-03-15T08:11:07;5.00;99.90
17385;DHT22;8810;48.680;8.894;2023-03-15T08:13:35;5.10;99.90
17385;DHT22;8810;48.680;8.894;2023-03-15T08:16:02;5.20;99.90
17385;DHT22;8810;48.680;8.894;2023-03-15T08:18:29;5.00;99.90
17385;DHT22;8810;48.680;8.894;2023-03-15T08:20:56;5.20;99.90
17385;DHT22;8810;48.680;8.894;2023-03-15T08:23:23;5.20;99.90
17385;DHT22;8810;48.680;8.894;2023-03-15T08:25:50;5.20;99.90
17385;DHT22;8810;48.680;8.894;2023-03-15T08:28:17;5.60;99.90
17385;DHT22;8810;48.680;8.894;2023-03-15T08:30:46;5.60;99.90
17385;DHT22;8810;48.680;8.894;2023-03-15T08:33:12;5.80;99.90
17385;DHT22;8810;48.680;8.894;2023-03-15T08:35:39;5.70;99.90
17385;DHT22;8810;48.680;8.894;2023-03-15T08:38:07;5.50;99.90
17385;DHT22;8810;48.680;8.894;2023-03-15T08:40:34;5.20;99.90
17385;DHT22;8810;48.680;8.894;2023-03-15T08:43:01;4.90;99.90
17385;DHT22;8810;48.680;8.894;2023-03-15T08:45:28;5.10;99.90
17385;DHT22;8810;48.680;8.894;2023-03-15T08:47:58;5.20;99.90
17385;DHT22;8810;48.680;8.894;2023-03-15T08:50:27;5.40;99.90
17385;DHT22;8810;48.680;8.894;2023-03-15T08:52:56;5.10;99.90
17385;DHT22;8810;48.680;8.894;2023-03-15T08:55:23;5.10;99.90
17385;DHT22;8810;48.680;8.894;2023-03-15T08:57:50;4.70;99.90
17385;DHT22;8810;48.680;8.894;2023-03-15T09:00:17;4.90;99.90
17385;DHT22;8810;48.680;8.894;2023-03-15T09:02:47;5.40;99.90
17385;DHT22;8810;48.680;8.894;2023-03-15T09:05:16;5.20;99.90
17385;DHT22;8810;48.680;8.894;2023-03-15T09:07:44;5.20;99.90
17385;DHT22;8810;48.680;8.894;2023-03-15T09:10:13;5.40;99.90
17385;DHT22;8810;48.680;8.894;2023-03-15T09:12:40;5.30;99.90
17385;DHT22;8810;48.680;8.894;2023-03-15T09:15:08;5.20;99.90
17385;DHT22;8810;48.680;8.894;2023-03-15T09:17:36;5.00;99.90
17385;DHT22;8810;48.680;8.894;2023-03-15T09:20:04;5.30;99.90
17385;DHT22;8810;48.680;8.894;2023-03-15T09:22:38;5.40;99.90
17385;DHT22;8810;48.680;8.894;2023-03-15T09:25:05;5.50;99.90
17385;DHT22;8810;48.680;8.894;2023-03-15T09:27:32;5.80;99.90
17385;DHT22;8810;48.680;8.894;2023-03-15T09:30:00;5.60;99.90
17385;DHT22;8810;48.680;8.894;2023-03-15T09:32:27;5.60;99.90
17385;DHT22;8810;48.680;8.894;2023-03-15T09:34:54;5.60;99.90
17385;DHT22;8810;48.680;8.894;2023-03-15T09:37:21;5.30;99.90
17385;DHT22;8810;48.680;8.894;2023-03-15T09:39:49;4.90;99.90
17385;DHT22;8810;48.680;8.894;2023-03-15T09:42:19;4.80;99.90
17385;DHT22;8810;48.680;8.894;2023-03-15T09:44:52;4.80;99.90
17385;DHT22;8810;48.680;8.894;2023-03-15T09:47:30;4.70;99.90
17385;DHT22;8810;48.680;8.894;2023-03-15T09:50:03;5.00;99.90
17385;DHT22;8810;48.680;8.894;2023-03-15T09:52:35;5.60;99.90
17385;DHT22;8810;48.680;8.894;2023-03-15T09:55:10;6.00;99.90
17385;DHT22;8810;48.680;8.894;2023-03-15T09:57:42;6.40;99.90
17385;DHT22;8810;48.680;8.894;2023-03-15T10:00:13;6.40;99.90
17385;DHT22;8810;48.680;8.894;2023-03-15T10:02:44;6.40;99.90
17385;DHT22;8810;48.680;8.894;2023-03-15T10:05:17;6.60;99.90
17385;DHT22;8810;48.680;8.894;2023-03-15T10:07:45;6.70;99.90
17385;DHT22;8810;48.680;8.894;2023-03-15T10:10:19;6.80;99.90
17385;DHT22;8810;48.680;8.894;2023-03-15T10:12:53;6.90;99.90
17385;DHT22;8810;48.680;8.894;2023-03-15T10:15:32;7.00;99.90
17385;DHT22;8810;48.680;8.894;2023-03-15T10:18:23;6.90;99.90
17385;DHT22;8810;48.680;8.894;2023-03-15T10:21:02;7.20;99.90
17385;DHT22;8810;48.680;8.894;2023-03-15T10:23:41;7.70;99.90
17385;DHT22;8810;48.680;8.894;2023-03-15T10:26:14;8.20;99.90
17385;DHT22;8810;48.680;8.894;2023-03-15T10:28:44;8.70;99.90
17385;DHT22;8810;48.680;8.894;2023-03-15T10:31:13;8.70;99.90
17385;DHT22;8810;48.680;8.894;2023-03-15T10:33:41;8.30;99.90
17385;DHT22;8810;48.680;8.894;2023-03-15T10:36:14;7.80;99.90
17385;DHT22;8810;48.680;8.894;2023-03-15T10:38:42;8.10;99.90
17385;DHT22;8810;48.680;8.894;2023-03-15T10:41:12;8.10;99.90
17385;DHT22;8810;48.680;8.894;2023-03-15T10:43:40;7.90;99.90
17385;DHT22;8810;48.680;8.894;2023-03-15T10:46:09;8.20;99.90
17385;DHT22;8810;48.680;8.894;2023-03-15T10:48:37;8.40;99.90
17385;DHT22;8810;48.680;8.894;2023-03-15T10:51:13;8.30;99.90
17385;DHT22;8810;48.680;8.894;2023-03-15T10:53:51;8.00;99.90
17385;DHT22;8810;48.680;8.894;2023-03-15T10:56:22;7.60;99.90
17385;DHT22;8810;48.680;8.894;2023-03-15T10:58:52;7.80;99.90
17385;DHT22;8810;48.680;8.894;2023-03-15T11:01:24;7.70;99.90
17385;DHT22;8810;48.680;8.894;2023-03-15T11:04:12;7.60;99.90
17385;DHT22;8810;48.680;8.894;2023-03-15T11:06:43;7.50;99.90
17385;DHT22;8810;48.680;8.894;2023-03-15T11:09:12;7.50;99.90
17385;DHT22;8810;48.680;8.894;2023-03-15T11:11:53;7.40;99.90
17385;DHT22;8810;48.680;8.894;2023-03-15T11:14:20;7.30;99.90
17385;DHT22;8810;48.680;8.894;2023-03-15T11:16:48;7.30;99.90
17385;DHT22;8810;48.680;8.894;2023-03-15T11:19:19;7.20;99.90
17385;DHT22;8810;48.680;8.894;2023-03-15T11:21:48;7.20;99.90
17385;DHT22;8810;48.680;8.894;2023-03-15T11:24:22;6.80;99.90
17385;DHT22;8810;48.680;8.894;2023-03-15T11:26:52;6.70;99.90
17385;DHT22;8810;48.680;8.894;2023-03-15T11:29:23;6.60;99.90
17385;DHT22;8810;48.680;8.894;2023-03-15T11:31:51;6.50;99.90
17385;DHT22;8810;48.680;8.894;2023-03-15T11:34:25;6.50;99.90
17385;DHT22;8810;48.680;8.894;2023-03-15T11:36:58;6.50;99.90
17385;DHT22;8810;48.680;8.894;2023-03-15T11:39:33;6.60;99.90
17385;DHT22;8810;48.680;8.894;2023-03-15T11:42:06;6.50;99.90
17385;DHT22;8810;48.680;8.894;2023-03-15T11:44:37;6.60;99.90
17385;DHT22;8810;48.680;8.894;2023-03-15T11:47:10;6.50;99.90
17385;DHT22;8810;48.680;8.894;2023-03-15T11:49:42;6.50;99.90
17385;DHT22;8810;48.680;8.894;2023-03-15T11:52:12;6.60;99.90
17385;DHT22;8810;48.680;8.894;2023-03-15T11:54:44;6.70;99.90
17385;DHT22;8810;48.680;8.894;2023-03-15T11:57:42;6.90;99.90
17385;DHT22;8810;48.680;8.894;2023-03-15T12:00:46;7.10;99.90
17385;DHT22;8810;48.680;8.894;2023-03-15T12:06:33;7.40;99.90
17385;DHT22;8810;48.680;8.894;2023-03-15T12:09:00;7.50;99.90
17385;DHT22;8810;48.680;8.894;2023-03-15T12:11:39;7.60;99.90
17385;DHT22;8810;48.680;8.894;2023-03-15T12:14:30;7.70;99.90
17385;DHT22;8810;48.680;8.894;2023-03-15T12:19:57;7.50;99.90
17385;DHT22;8810;48.680;8.894;2023-03-15T12:22:30;7.30;99.90
17385;DHT22;8810;48.680;8.894;2023-03-15T12:25:12;7.30;99.90
17385;DHT22;8810;48.680;8.894;2023-03-15T12:27:45;7.30;99.90
17385;DHT22;8810;48.680;8.894;2023-03-15T12:30:20;7.50;99.90
17385;DHT22;8810;48.680;8.894;2023-03-15T12:32:50;7.60;99.90
17385;DHT22;8810;48.680;8.894;2023-03-15T12:35:20;7.70;99.90
17385;DHT22;8810;48.680;8.894;2023-03-15T12:37:48;8.00;99.90
17385;DHT22;8810;48.680;8.894;2023-03-15T12:40:38;8.30;99.90
17385;DHT22;8810;48.680;8.894;2023-03-15T12:43:05;8.40;99.90
17385;DHT22;8810;48.680;8.894;2023-03-15T12:45:46;8.30;99.90
17385;DHT22;8810;48.680;8.894;2023-03-15T12:48:22;8.30;99.90
17385;DHT22;8810;48.680;8.894;2023-03-15T12:50:58;8.40;99.90
17385;DHT22;8810;48.680;8.894;2023-03-15T12:53:33;8.40;99.90
17385;DHT22;8810;48.680;8.894;2023-03-15T12:56:27;8.30;99.90
17385;DHT22;8810;48.680;8.894;2023-03-15T12:58:59;8.30;99.90
17385;DHT22;8810;48.680;8.894;2023-03-15T13:01:30;8.20;99.90
17385;DHT22;8810;48.680;8.894;2023-03-15T13:03:58;8.10;99.90
17385;DHT22;8810;48.680;8.894;2023-03-15T13:06:40;8.00;99.90
17385;DHT22;8810;48.680;8.894;2023-03-15T13:09:19;7.90;99.90
17385;DHT22;8810;48.680;8.894;2023-03-15T13:11:51;7.90;99.90
17385;DHT22;8810;48.680;8.894;2023-03-15T13:14:35;8.20;99.90
17385;DHT22;8810;48.680;8.894;2023-03-15T13:17:14;8.40;99.90
17385;DHT22;8810;48.680;8.894;2023-03-15T13:19:50;8.30;99.90
17385;DHT22;8810;48.680;8.894;2023-03-15T13:22:26;8.30;99.90
17385;DHT22;8810;48.680;8.894;2023-03-15T13:25:00;8.20;99.90
17385;DHT22;8810;48.680;8.894;2023-03-15T13:27:42;7.80;99.90
17385;DHT22;8810;48.680;8.894;2023-03-15T13:30:31;7.50;99.90
17385;DHT22;8810;48.680;8.894;2023-03-15T13:33:09;7.10;99.90
17385;DHT22;8810;48.680;8.894;2023-03-15T13:35:42;7.00;99.90
17385;DHT22;8810;48.680;8.894;2023-03-15T13:38:22;7.00;99.90
17385;DHT22;8810;48.680;8.894;2023-03-15T13:40:50;6.90;99.90
17385;DHT22;8810;48.680;8.894;2023-03-15T13:43:17;6.80;99.90
17385;DHT22;8810;48.680;8.894;2023-03-15T13:45:44;6.70;99.90
17385;DHT22;8810;48.680;8.894;2023-03-15T13:48:12;6.60;99.90
17385;DHT22;8810;48.680;8.894;2023-03-15T13:50:39;6.50;99.90
17385;DHT22;8810;48.680;8.894;2023-03-15T13:53:09;6.40;99.90
17385;DHT22;8810;48.680;8.894;2023-03-15T13:55:37;6.30;99.90
17385;DHT22;8810;48.680;8.894;2023-03-15T13:58:06;6.10;99.90
17385;DHT22;8810;48.680;8.894;2023-03-15T14:00:35;6.10;99.90
17385;DHT22;8810;48.680;8.894;2023-03-15T14:03:05;6.10;99.90
17385;DHT22;8810;48.680;8.894;2023-03-15T14:05:42;6.10;99.90
17385;DHT22;8810;48.680;8.894;2023-03-15T14:08:19;6.30;99.90
17385;DHT22;8810;48.680;8.894;2023-03-15T14:11:01;6.50;99.90
17385;DHT22;8810;48.680;8.894;2023-03-15T14:13:30;6.60;99.90
17385;DHT22;8810;48.680;8.894;2023-03-15T14:16:00;6.70;99.90
17385;DHT22;8810;48.680;8.894;2023-03-15T14:18:32;6.80;99.90
17385;DHT22;8810;48.680;8.894;2023-03-15T14:21:02;6.80;99.90
17385;DHT22;8810;48.680;8.894;2023-03-15T14:23:31;6.90;99.90
17385;DHT22;8810;48.680;8.894;2023-03-15T14:26:10;6.90;99.90
17385;DHT22;8810;48.680;8.894;2023-03-15T14:28:38;6.90;99.90
17385;DHT22;8810;48.680;8.894;2023-03-15T14:31:06;6.80;99.90
17385;DHT22;8810;48.680;8.894;2023-03-15T14:33:37;6.80;99.90
17385;DHT22;8810;48.680;8.894;2023-03-15T14:36:19;6.70;99.90
17385;DHT22;8810;48.680;8.894;2023-03-15T14:38:50;6.70;99.90
17385;DHT22;8810;48.680;8.894;2023-03-15T14:41:22;6.60;99.90
17385;DHT22;8810;48.680;8.894;2023-03-15T14:43:50;6.60;99.90
17385;DHT22;8810;48.680;8.894;2023-03-15T14:46:17;6.50;99.90
17385;DHT22;8810;48.680;8.894;2023-03-15T14:48:44;6.50;99.90
17385;DHT22;8810;48.680;8.894;2023-03-15T14:51:15;6.50;99.90
17385;DHT22;8810;48.680;8.894;2023-03-15T14:53:44;6.40;99.90
17385;DHT22;8810;48.680;8.894;2023-03-15T14:56:12;6.40;99.90
17385;DHT22;8810;48.680;8.894;2023-03-15T14:58:40;6.30;99.90
17385;DHT22;8810;48.680;8.894;2023-03-15T15:01:09;6.20;99.90
17385;DHT22;8810;48.680;8.894;2023-03-15T15:03:39;6.10;99.90
17385;DHT22;8810;48.680;8.894;2023-03-15T15:06:10;5.90;99.90
17385;DHT22;8810;48.680;8.894;2023-03-15T15:08:41;5.70;99.90
17385;DHT22;8810;48.680;8.894;2023-03-15T15:11:08;5.50;99.90
17385;DHT22;8810;48.680;8.894;2023-03-15T15:13:37;5.40;99.90
17385;DHT22;8810;48.680;8.894;2023-03-15T15:16:05;5.30;99.90
17385;DHT22;8810;48.680;8.894;2023-03-15T15:18:34;5.20;99.90
17385;DHT22;8810;48.680;8.894;2023-03-15T15:21:05;5.20;99.90
17385;DHT22;8810;48.680;8.894;2023-03-15T15:23:40;5.00;99.90
17385;DHT22;8810;48.680;8.894;2023-03-15T15:26:13;4.90;99.90
17385;DHT22;8810;48.680;8.894;2023-03-15T15:28:42;4.90;99.90
17385;DHT22;8810;48.680;8.894;2023-03-15T15:31:13;4.80;99.90
17385;DHT22;8810;48.680;8.894;2023-03-15T15:33:41;4.80;99.90
17385;DHT22;8810;48.680;8.894;2023-03-15T15:36:11;4.80;99.90
17385;DHT22;8810;48.680;8.894;2023-03-15T15:38:40;4.80;99.90
17385;DHT22;8810;48.680;8.894;2023-03-15T15:41:15;4.70;99.90
17385;DHT22;8810;48.680;8.894;2023-03-15T15:43:43;4.70;99.90
17385;DHT22;8810;48.680;8.894;2023-03-15T15:46:11;4.60;99.90
17385;DHT22;8810;48.680;8.894;2023-03-15T15:48:45;4.60;99.90
17385;DHT22;8810;48.680;8.894;2023-03-15T15:51:25;4.60;99.90
17385;DHT22;8810;48.680;8.894;2023-03-15T15:53:56;4.60;99.90
17385;DHT22;8810;48.680;8.894;2023-03-15T15:56:28;4.60;99.90
17385;DHT22;8810;48.680;8.894;2023-03-15T15:58:56;4.60;99.90
17385;DHT22;8810;48.680;8.894;2023-03-15T16:01:24;4.60;99.90
17385;DHT22;8810;48.680;8.894;2023-03-15T16:03:51;4.60;99.90
17385;DHT22;8810;48.680;8.894;2023-03-15T16:06:19;4.60;99.90
17385;DHT22;8810;48.680;8.894;2023-03-15T16:08:48;4.60;99.90
17385;DHT22;8810;48.680;8.894;2023-03-15T16:11:18;4.70;99.90
17385;DHT22;8810;48.680;8.894;2023-03-15T16:13:47;4.70;99.90
17385;DHT22;8810;48.680;8.894;2023-03-15T16:16:16;4.70;99.90
17385;DHT22;8810;48.680;8.894;2023-03-15T16:18:43;4.70;99.90
17385;DHT22;8810;48.680;8.894;2023-03-15T16:21:13;4.70;99.90